createdAt,value
2022-10-15T00:02:20.970Z,1.95
2022-10-15T00:05:06.536Z,2.08
2022-10-15T00:07:52.542Z,1.88
2022-10-15T00:10:38.585Z,1.60
2022-10-15T00:13:24.207Z,1.90
2022-10-15T00:16:13.434Z,3.22
2022-10-15T00:18:59.739Z,1.80
2022-10-15T00:21:45.150Z,1.60
2022-10-15T00:24:30.688Z,1.90
2022-10-15T00:27:16.280Z,2.08
2022-10-15T00:30:03.238Z,2.03
2022-10-15T00:32:48.683Z,1.85
2022-10-15T00:35:34.201Z,1.73
2022-10-15T00:38:19.843Z,1.70
2022-10-15T00:41:08.364Z,1.63
2022-10-15T00:43:59.088Z,1.55
2022-10-15T00:46:44.430Z,1.70
2022-10-15T00:49:40.343Z,1.45
2022-10-15T00:52:38.280Z,1.40
2022-10-15T00:55:34.202Z,1.20
2022-10-15T00:58:27.907Z,1.13
2022-10-15T01:01:13.276Z,0.98
2022-10-15T01:04:00.384Z,1.15
2022-10-15T01:06:46.481Z,1.00
2022-10-15T01:09:31.846Z,0.98
2022-10-15T01:12:32.829Z,1.00
2022-10-15T01:15:40.033Z,1.00
2022-10-15T01:18:33.580Z,1.30
2022-10-15T01:21:27.726Z,1.00
2022-10-15T01:24:26.439Z,1.00
2022-10-15T01:27:17.671Z,1.33
2022-10-15T01:30:24.995Z,1.05
2022-10-15T01:33:44.811Z,1.00
2022-10-15T01:36:37.685Z,1.10
2022-10-15T01:39:34.214Z,0.90
2022-10-15T01:42:26.258Z,1.20
2022-10-15T01:45:20.140Z,0.98
2022-10-15T01:48:11.815Z,1.10
2022-10-15T01:51:01.595Z,1.23
2022-10-15T01:53:48.470Z,1.02
2022-10-15T01:56:36.556Z,1.10
2022-10-15T01:59:28.046Z,1.30
2022-10-15T02:02:13.994Z,1.00
2022-10-15T02:04:59.201Z,1.15
2022-10-15T02:08:10.462Z,1.45
2022-10-15T02:11:10.722Z,1.10
2022-10-15T02:14:14.976Z,1.25
2022-10-15T02:17:09.468Z,1.10
2022-10-15T02:23:20.604Z,1.13
2022-10-15T02:26:09.483Z,1.27
2022-10-15T02:28:59.493Z,1.20
2022-10-15T02:31:48.536Z,1.27
2022-10-15T02:34:35.818Z,1.05
2022-10-15T02:37:24.411Z,1.10
2022-10-15T02:40:10.514Z,1.30
2022-10-15T02:42:56.386Z,1.38
2022-10-15T02:45:42.230Z,1.20
2022-10-15T02:48:27.509Z,1.30
2022-10-15T02:51:13.224Z,2.38
2022-10-15T02:53:59.272Z,1.00
2022-10-15T02:56:44.760Z,1.70
2022-10-15T02:59:30.116Z,1.23
2022-10-15T03:02:18.430Z,0.95
2022-10-15T03:05:05.355Z,1.38
2022-10-15T03:07:50.948Z,1.00
2022-10-15T03:10:36.505Z,0.90
2022-10-15T03:13:22.453Z,0.77
2022-10-15T03:16:09.624Z,0.90
2022-10-15T03:18:55.115Z,0.80
2022-10-15T03:21:40.778Z,0.80
2022-10-15T03:24:26.301Z,0.70
2022-10-15T03:27:11.764Z,0.75
2022-10-15T03:29:57.318Z,0.82
2022-10-15T03:35:29.444Z,0.80
2022-10-15T03:38:15.201Z,0.85
2022-10-15T03:41:00.402Z,0.70
2022-10-15T03:43:45.857Z,0.55
2022-10-15T03:46:31.984Z,0.60
2022-10-15T03:49:17.516Z,0.70
2022-10-15T03:52:03.226Z,0.63
2022-10-15T03:54:48.404Z,0.77
2022-10-15T03:57:34.085Z,0.80
2022-10-15T04:00:19.611Z,0.70
2022-10-15T04:03:04.983Z,0.73
2022-10-15T04:05:54.109Z,0.70
2022-10-15T04:08:40.668Z,0.75
2022-10-15T04:11:26.301Z,0.80
2022-10-15T04:14:12.043Z,0.73
2022-10-15T04:16:59.115Z,0.70
2022-10-15T04:19:44.505Z,0.70
2022-10-15T04:22:30.184Z,0.65
2022-10-15T04:25:16.114Z,0.75
2022-10-15T04:28:02.093Z,0.70
2022-10-15T04:30:47.523Z,1.00
2022-10-15T04:33:32.707Z,0.90
2022-10-15T04:39:04.403Z,0.70
2022-10-15T04:41:50.076Z,0.88
2022-10-15T04:44:35.610Z,0.82
2022-10-15T04:47:21.288Z,0.80
2022-10-15T04:50:07.101Z,0.77
2022-10-15T04:52:52.678Z,0.90
2022-10-15T04:55:38.365Z,0.80
2022-10-15T04:58:23.714Z,0.85
2022-10-15T05:01:12.441Z,1.00
2022-10-15T05:03:57.674Z,0.50
2022-10-15T05:06:43.312Z,0.70
2022-10-15T05:09:29.120Z,0.77
2022-10-15T05:12:14.615Z,0.70
2022-10-15T05:15:00.026Z,0.90
2022-10-15T05:17:45.661Z,1.35
2022-10-15T05:20:31.311Z,0.85
2022-10-15T05:23:16.871Z,0.80
2022-10-15T05:26:05.122Z,0.60
2022-10-15T05:28:51.211Z,0.70
2022-10-15T05:31:36.732Z,0.95
2022-10-15T05:34:22.427Z,1.00
2022-10-15T05:37:07.726Z,1.00
2022-10-15T05:39:53.367Z,1.17
2022-10-15T05:42:38.883Z,1.40
2022-10-15T05:45:24.387Z,1.60
2022-10-15T05:48:09.989Z,1.48
2022-10-15T05:51:01.495Z,0.90
2022-10-15T05:53:47.112Z,0.80
2022-10-15T05:56:32.549Z,0.90
2022-10-15T05:59:17.919Z,0.85
2022-10-15T06:02:03.577Z,1.00
2022-10-15T06:04:49.401Z,0.90
2022-10-15T06:07:34.952Z,0.90
2022-10-15T06:10:20.229Z,0.80
2022-10-15T06:13:06.733Z,0.82
2022-10-15T06:15:51.936Z,1.27
2022-10-15T06:18:38.869Z,1.00
2022-10-15T06:21:24.025Z,0.90
2022-10-15T06:24:10.237Z,0.90
2022-10-15T06:26:55.750Z,1.00
2022-10-15T06:29:41.707Z,1.05
2022-10-15T06:32:27.031Z,1.00
2022-10-15T06:35:12.545Z,0.93
2022-10-15T06:38:03.094Z,0.98
2022-10-15T06:40:48.967Z,0.98
2022-10-15T06:43:35.582Z,1.00
2022-10-15T06:46:21.515Z,1.08
2022-10-15T06:49:07.213Z,1.10
2022-10-15T06:51:52.654Z,0.98
2022-10-15T06:54:38.297Z,0.82
2022-10-15T06:57:25.740Z,1.00
2022-10-15T07:00:12.219Z,1.17
2022-10-15T07:02:57.441Z,0.95
2022-10-15T07:05:42.962Z,1.00
2022-10-15T07:08:28.560Z,1.00
2022-10-15T07:11:14.304Z,0.90
2022-10-15T07:13:59.598Z,0.90
2022-10-15T07:16:45.242Z,0.80
2022-10-15T07:19:30.386Z,0.90
2022-10-15T07:22:16.190Z,1.33
2022-10-15T07:25:01.696Z,1.20
2022-10-15T07:27:47.150Z,1.17
2022-10-15T07:30:33.014Z,1.08
2022-10-15T07:33:18.456Z,1.00
2022-10-15T07:36:06.576Z,1.25
2022-10-15T07:38:52.665Z,0.70
2022-10-15T07:41:38.157Z,1.10
2022-10-15T07:44:23.755Z,0.90
2022-10-15T07:47:09.290Z,1.00
2022-10-15T07:49:55.183Z,0.80
2022-10-15T07:52:40.781Z,1.00
2022-10-15T07:55:26.262Z,0.90
2022-10-15T07:58:11.847Z,0.90
2022-10-15T08:01:02.029Z,0.90
2022-10-15T08:03:47.860Z,1.08
2022-10-15T08:06:33.523Z,1.10
2022-10-15T08:09:19.003Z,1.00
2022-10-15T08:12:06.276Z,0.90
2022-10-15T08:14:51.703Z,1.50
2022-10-15T08:17:37.460Z,0.80
2022-10-15T08:20:22.835Z,0.90
2022-10-15T08:23:15.203Z,1.30
2022-10-15T08:26:01.630Z,1.10
2022-10-15T08:28:46.974Z,1.10
2022-10-15T08:31:32.318Z,1.00
2022-10-15T08:34:17.593Z,1.40
2022-10-15T08:37:03.461Z,1.23
2022-10-15T08:39:48.635Z,1.15
2022-10-15T08:42:39.876Z,1.40
2022-10-15T08:45:30.754Z,1.10
2022-10-15T08:48:25.974Z,1.10
2022-10-15T08:51:19.211Z,0.98
2022-10-15T08:54:06.572Z,1.05
2022-10-15T08:57:05.496Z,1.10
2022-10-15T09:00:12.744Z,1.20
2022-10-15T09:03:23.394Z,1.20
2022-10-15T09:06:35.465Z,1.15
2022-10-15T09:09:35.962Z,1.20
2022-10-15T09:12:51.780Z,1.00
2022-10-15T09:16:04.849Z,1.55
2022-10-15T09:18:52.509Z,1.08
2022-10-15T09:21:38.497Z,0.90
2022-10-15T09:24:28.311Z,1.00
2022-10-15T09:27:35.725Z,0.98
2022-10-15T09:30:35.680Z,1.10
2022-10-15T09:33:57.369Z,1.10
2022-10-15T09:36:50.721Z,0.90
2022-10-15T09:39:50.050Z,1.15
2022-10-15T09:42:39.594Z,0.85
2022-10-15T09:45:25.441Z,1.30
2022-10-15T09:48:19.793Z,1.10
2022-10-15T09:51:27.103Z,0.90
2022-10-15T09:54:28.369Z,1.10
2022-10-15T09:57:15.067Z,1.15
2022-10-15T10:00:03.936Z,1.02
2022-10-15T10:03:07.564Z,0.90
2022-10-15T10:06:03.833Z,1.10
2022-10-15T10:08:56.437Z,1.13
2022-10-15T10:11:52.473Z,1.10
2022-10-15T10:14:45.305Z,1.20
2022-10-15T10:17:31.731Z,1.00
2022-10-15T10:20:20.575Z,1.00
2022-10-15T10:23:23.684Z,0.90
2022-10-15T10:26:10.996Z,0.75
2022-10-15T10:29:05.038Z,0.90
2022-10-15T10:32:09.046Z,1.00
2022-10-15T10:34:54.929Z,1.40
2022-10-15T10:37:43.692Z,1.10
2022-10-15T10:40:34.148Z,0.82
2022-10-15T10:43:26.615Z,0.90
2022-10-15T10:46:15.179Z,1.10
2022-10-15T10:49:00.563Z,0.90
2022-10-15T10:51:50.161Z,1.05
2022-10-15T10:54:36.530Z,1.20
2022-10-15T10:57:35.544Z,0.90
2022-10-15T11:00:40.609Z,1.00
2022-10-15T11:03:39.656Z,0.95
2022-10-15T11:06:51.062Z,0.80
2022-10-15T11:09:56.459Z,1.10
2022-10-15T11:13:00.455Z,0.80
2022-10-15T11:16:09.405Z,1.27
2022-10-15T11:19:19.779Z,1.00
2022-10-15T11:22:29.296Z,0.90
2022-10-15T11:25:38.222Z,1.05
2022-10-15T11:28:45.878Z,0.90
2022-10-15T11:32:02.773Z,0.80
2022-10-15T11:35:34.412Z,0.80
2022-10-15T11:38:43.229Z,0.85
2022-10-15T11:41:44.667Z,0.80
2022-10-15T11:44:58.483Z,0.80
2022-10-15T11:48:05.749Z,1.08
2022-10-15T11:51:17.469Z,0.70
2022-10-15T11:54:25.508Z,0.90
2022-10-15T11:57:18.553Z,0.60
2022-10-15T12:00:20.582Z,0.70
2022-10-15T12:03:14.258Z,0.70
2022-10-15T12:06:09.767Z,1.20
2022-10-15T12:08:56.752Z,0.80
2022-10-15T12:12:10.953Z,0.80
2022-10-15T12:15:07.637Z,0.90
2022-10-15T12:18:01.446Z,0.80
2022-10-15T12:20:46.877Z,0.80
2022-10-15T12:23:38.107Z,0.90
2022-10-15T12:26:23.735Z,0.90
2022-10-15T12:29:21.786Z,0.90
2022-10-15T12:32:24.061Z,0.90
2022-10-15T12:35:15.802Z,0.70
2022-10-15T12:38:18.432Z,0.80
2022-10-15T12:41:08.573Z,0.82
2022-10-15T12:44:18.426Z,0.80
2022-10-15T12:47:03.878Z,0.70
2022-10-15T12:50:02.617Z,0.85
2022-10-15T12:53:00.119Z,0.70
2022-10-15T12:56:11.924Z,0.93
2022-10-15T12:58:57.618Z,0.80
2022-10-15T13:01:43.138Z,0.90
2022-10-15T13:04:38.463Z,0.75
2022-10-15T13:07:23.950Z,0.80
2022-10-15T13:10:21.659Z,0.80
2022-10-15T13:13:15.016Z,0.70
2022-10-15T13:16:07.022Z,0.70
2022-10-15T13:18:55.559Z,0.80
2022-10-15T13:21:51.453Z,0.85
2022-10-15T13:24:43.361Z,0.70
2022-10-15T13:27:37.385Z,0.70
2022-10-15T13:33:10.527Z,0.70
2022-10-15T13:35:55.956Z,0.60
2022-10-15T13:38:46.515Z,0.80
2022-10-15T13:41:40.331Z,0.77
2022-10-15T13:44:26.085Z,1.00
2022-10-15T13:47:30.928Z,0.63
2022-10-15T13:50:24.261Z,0.60
2022-10-15T13:53:09.742Z,0.80
2022-10-15T13:55:57.437Z,0.75
2022-10-15T13:58:46.945Z,0.80
2022-10-15T14:01:34.866Z,0.70
2022-10-15T14:04:23.428Z,0.70
2022-10-15T14:07:27.202Z,1.10
2022-10-15T14:10:13.209Z,0.70
2022-10-15T14:12:58.919Z,0.80
2022-10-15T14:15:59.010Z,1.00
2022-10-15T14:18:49.348Z,0.80
2022-10-15T14:21:35.919Z,0.80
2022-10-15T14:24:24.721Z,0.60
2022-10-15T14:27:15.670Z,0.98
2022-10-15T14:30:02.655Z,0.90
2022-10-15T14:32:52.559Z,0.80
2022-10-15T14:35:38.039Z,0.93
2022-10-15T14:38:26.137Z,0.70
2022-10-15T14:41:30.965Z,0.90
2022-10-15T14:47:04.661Z,0.63
2022-10-15T14:49:57.158Z,0.60
2022-10-15T14:52:48.169Z,0.70
2022-10-15T14:55:38.807Z,0.63
2022-10-15T14:58:26.572Z,0.70
2022-10-15T15:01:16.446Z,0.95
2022-10-15T15:04:01.719Z,0.70
2022-10-15T15:06:47.788Z,0.85
2022-10-15T15:09:33.072Z,0.70
2022-10-15T15:12:27.069Z,0.80
2022-10-15T15:15:15.796Z,1.00
2022-10-15T15:18:01.053Z,0.70
2022-10-15T15:20:49.264Z,0.90
2022-10-15T15:23:35.991Z,1.15
2022-10-15T15:26:21.413Z,1.13
2022-10-15T15:29:13.947Z,1.00
2022-10-15T15:31:59.704Z,1.00
2022-10-15T15:34:45.536Z,1.10
2022-10-15T15:37:31.158Z,1.20
2022-10-15T15:40:16.606Z,1.10
2022-10-15T15:43:02.059Z,1.05
2022-10-15T15:45:47.589Z,1.02
2022-10-15T15:48:33.252Z,0.90
2022-10-15T15:51:28.050Z,1.00
2022-10-15T15:54:13.547Z,0.85
2022-10-15T15:56:59.192Z,0.80
2022-10-15T15:59:44.518Z,1.10
2022-10-15T16:02:29.860Z,1.00
2022-10-15T16:05:16.879Z,1.25
2022-10-15T16:08:02.391Z,1.00
2022-10-15T16:10:47.845Z,1.00
2022-10-15T16:13:34.473Z,0.80
2022-10-15T16:16:20.105Z,1.08
2022-10-15T16:19:05.988Z,1.00
2022-10-15T16:21:51.550Z,1.38
2022-10-15T16:24:37.108Z,1.02
2022-10-15T16:27:23.117Z,1.00
2022-10-15T16:30:10.039Z,1.00
2022-10-15T16:32:56.048Z,1.50
2022-10-15T16:35:41.846Z,1.00
2022-10-15T16:38:27.508Z,0.95
2022-10-15T16:41:14.702Z,1.05
2022-10-15T16:44:00.087Z,1.02
2022-10-15T16:46:45.699Z,1.00
2022-10-15T16:49:30.929Z,1.20
2022-10-15T16:52:16.501Z,1.10
2022-10-15T16:55:02.054Z,1.30
2022-10-15T16:57:47.464Z,1.10
2022-10-15T17:00:33.071Z,1.02
2022-10-15T17:03:18.356Z,1.30
2022-10-15T17:06:06.854Z,1.30
2022-10-15T17:08:53.536Z,1.15
2022-10-15T17:11:42.081Z,1.50
2022-10-15T17:14:27.488Z,1.30
2022-10-15T17:17:12.905Z,1.48
2022-10-15T17:19:58.134Z,1.73
2022-10-15T17:22:43.675Z,1.85
2022-10-15T17:25:29.222Z,1.80
2022-10-15T17:28:15.097Z,1.85
2022-10-15T17:31:11.566Z,1.88
2022-10-15T17:34:03.294Z,1.67
2022-10-15T17:36:49.588Z,1.50
2022-10-15T17:39:35.193Z,1.60
2022-10-15T17:42:21.866Z,1.58
2022-10-15T17:45:07.950Z,1.63
2022-10-15T17:47:53.628Z,1.90
2022-10-15T17:50:43.076Z,1.42
2022-10-15T17:53:30.886Z,1.60
2022-10-15T17:56:25.244Z,1.70
2022-10-15T17:59:12.283Z,1.90
2022-10-15T18:02:00.670Z,2.13
2022-10-15T18:04:46.946Z,2.28
2022-10-15T18:07:32.451Z,1.77
2022-10-15T18:10:18.114Z,1.98
2022-10-15T18:13:04.511Z,1.80
2022-10-15T18:15:50.690Z,1.70
2022-10-15T18:18:37.208Z,2.10
2022-10-15T18:21:24.704Z,1.60
2022-10-15T18:24:10.039Z,1.70
2022-10-15T18:26:55.375Z,2.70
2022-10-15T18:29:41.133Z,2.50
2022-10-15T18:32:26.576Z,2.20
2022-10-15T18:35:11.988Z,1.98
2022-10-15T18:37:57.569Z,1.90
2022-10-15T18:40:42.908Z,2.63
2022-10-15T18:43:28.807Z,2.08
2022-10-15T18:46:14.377Z,2.40
2022-10-15T18:49:00.924Z,1.80
2022-10-15T18:51:46.894Z,2.03
2022-10-15T18:54:36.390Z,1.83
2022-10-15T18:57:21.884Z,2.00
2022-10-15T19:00:08.389Z,2.40
2022-10-15T19:02:54.069Z,2.05
2022-10-15T19:05:39.425Z,2.30
2022-10-15T19:08:25.791Z,2.20
2022-10-15T19:11:11.122Z,2.22
2022-10-15T19:13:57.771Z,2.40
2022-10-15T19:16:44.306Z,2.65
2022-10-15T19:19:29.777Z,1.98
2022-10-15T19:22:15.261Z,2.30
2022-10-15T19:25:00.551Z,2.40
2022-10-15T19:27:46.299Z,2.47
2022-10-15T19:30:31.613Z,1.92
2022-10-15T19:33:17.143Z,1.65
2022-10-15T19:36:02.932Z,1.77
2022-10-15T19:38:48.181Z,1.60
2022-10-15T19:41:37.834Z,1.80
2022-10-15T19:44:26.118Z,1.60
2022-10-15T19:47:11.581Z,1.60
2022-10-15T19:49:57.050Z,1.40
2022-10-15T19:52:42.713Z,1.60
2022-10-15T19:55:27.944Z,1.70
2022-10-15T19:58:13.603Z,1.95
2022-10-15T20:00:59.835Z,1.75
2022-10-15T20:03:45.174Z,1.70
2022-10-15T20:06:30.766Z,1.80
2022-10-15T20:09:16.238Z,2.00
2022-10-15T20:12:01.976Z,1.80
2022-10-15T20:14:47.671Z,1.80
2022-10-15T20:17:33.354Z,1.80
2022-10-15T20:20:18.736Z,1.40
2022-10-15T20:23:04.206Z,1.70
2022-10-15T20:25:49.957Z,1.70
2022-10-15T20:28:37.571Z,1.77
2022-10-15T20:31:28.414Z,1.58
2022-10-15T20:34:13.847Z,1.88
2022-10-15T20:36:59.795Z,1.75
2022-10-15T20:39:45.480Z,1.58
2022-10-15T20:42:34.107Z,1.90
2022-10-15T20:45:20.044Z,2.03
2022-10-15T20:48:06.910Z,1.70
2022-10-15T20:50:54.243Z,1.83
2022-10-15T20:53:40.350Z,1.70
2022-10-15T20:56:25.671Z,4.30
2022-10-15T20:59:11.304Z,2.50
2022-10-15T21:01:56.857Z,2.00
2022-10-15T21:04:42.435Z,1.92
2022-10-15T21:07:27.797Z,1.50
2022-10-15T21:10:13.556Z,1.40
2022-10-15T21:12:58.816Z,1.60
2022-10-15T21:15:44.368Z,1.70
2022-10-15T21:18:30.135Z,1.58
2022-10-15T21:21:15.515Z,1.65
2022-10-15T21:24:01.259Z,2.03
2022-10-15T21:26:46.912Z,1.80
2022-10-15T21:29:32.236Z,1.60
2022-10-15T21:32:17.730Z,1.50
2022-10-15T21:35:03.791Z,2.10
2022-10-15T21:37:51.379Z,2.03
2022-10-15T21:40:37.029Z,1.75
2022-10-15T21:43:22.332Z,1.40
2022-10-15T21:46:10.614Z,1.50
2022-10-15T21:48:56.186Z,1.42
2022-10-15T21:51:41.784Z,1.63
2022-10-15T21:54:27.366Z,1.50
2022-10-15T21:57:12.900Z,1.60
2022-10-15T21:59:58.295Z,1.60
2022-10-15T22:02:43.953Z,2.08
2022-10-15T22:05:29.378Z,1.60
2022-10-15T22:08:15.162Z,1.73
2022-10-15T22:11:20.511Z,2.10
2022-10-15T22:14:08.919Z,1.40
2022-10-15T22:16:54.533Z,1.63
2022-10-15T22:19:39.990Z,1.55
2022-10-15T22:22:25.833Z,1.70
2022-10-15T22:25:11.217Z,1.73
2022-10-15T22:27:56.440Z,1.52
2022-10-15T22:30:41.942Z,1.20
2022-10-15T22:33:27.512Z,1.33
2022-10-15T22:36:20.363Z,1.70
2022-10-15T22:39:06.702Z,2.00
2022-10-15T22:41:52.400Z,1.40
2022-10-15T22:44:37.700Z,1.33
2022-10-15T22:47:23.327Z,1.45
2022-10-15T22:50:09.043Z,1.50
2022-10-15T22:52:54.199Z,1.25
2022-10-15T22:55:39.763Z,1.20
2022-10-15T22:58:26.003Z,1.50
2022-10-15T23:01:20.908Z,1.40
2022-10-15T23:04:07.377Z,1.25
2022-10-15T23:06:52.914Z,1.30
2022-10-15T23:09:38.435Z,1.38
2022-10-15T23:12:24.484Z,1.25
2022-10-15T23:15:10.450Z,1.20
2022-10-15T23:17:55.986Z,1.25
2022-10-15T23:20:41.588Z,1.48
2022-10-15T23:23:27.118Z,1.40
2022-10-15T23:26:16.973Z,1.52
2022-10-15T23:29:04.485Z,1.20
2022-10-15T23:31:50.806Z,1.23
2022-10-15T23:34:36.149Z,1.38
2022-10-15T23:37:21.774Z,1.23
2022-10-15T23:40:08.407Z,1.30
2022-10-15T23:42:54.697Z,1.40
2022-10-15T23:45:41.612Z,1.30
2022-10-15T23:48:27.294Z,1.40
2022-10-15T23:51:15.092Z,1.50
2022-10-15T23:54:01.924Z,1.65
2022-10-15T23:56:47.894Z,1.42
2022-10-15T23:59:33.566Z,1.70
